Time;durP1;ratioP1;P1;durP2;ratioP2;P2;SDS_P1;SDS_P2;PMS_P1;PMS_P2;Temp;Humidity;BMP_temperature;BMP_pressure;BME280_temperature;BME280_humidity;BME280_pressure;Samples;Min_cycle;Max_cycle;Signal;HPM_P1;HPM_P2
2022/12/06 04:56:50;;;;;;;11.90;4.40;;;8.70;91.80;;;;;;5006050;28;20202;-96
2022/12/06 04:59:49;;;;;;;9.47;4.10;;;8.70;91.90;;;;;;5002237;28;20744;-96
2022/12/06 05:02:34;;;;;;;6.27;3.70;;;8.70;91.80;;;;;;5004019;28;20208;-96
2022/12/06 05:05:30;;;;;;;6.40;3.37;;;8.70;91.80;;;;;;5009095;28;20205;-96
2022/12/06 05:08:01;;;;;;;6.67;3.53;;;8.70;91.90;;;;;;5013756;28;20212;-96
2022/12/06 05:13:55;;;;;;;5.13;3.53;;;8.70;91.80;;;;;;5008774;28;20265;-96
2022/12/06 05:19:22;;;;;;;9.70;4.67;;;8.70;91.50;;;;;;4984437;28;20262;-96
2022/12/06 05:22:16;;;;;;;8.60;4.80;;;8.70;91.60;;;;;;4998562;28;20296;-96
2022/12/06 05:25:20;;;;;;;9.30;4.67;;;8.70;91.60;;;;;;5012467;28;20208;-96
2022/12/06 05:35:05;;;;;;;9.00;3.90;;;8.70;91.70;;;;;;4967338;28;20271;-96
2022/12/06 05:38:08;;;;;;;12.10;5.40;;;8.70;91.70;;;;;;4915143;29;20220;-96
2022/12/06 05:41:02;;;;;;;11.53;4.93;;;8.70;91.70;;;;;;4932155;28;20634;-96
2022/12/06 05:50:41;;;;;;;9.97;4.47;;;8.70;91.40;;;;;;4992896;28;20250;-96
2022/12/06 05:53:42;;;;;;;9.97;4.30;;;8.60;91.70;;;;;;4949475;28;20206;-96
2022/12/06 05:56:42;;;;;;;;;;;;;;;;;;;;;
2022/12/06 05:59:38;;;;;;;13.97;6.10;;;8.60;91.10;;;;;;4996061;28;20243;-96
2022/12/06 06:02:45;;;;;;;12.13;4.53;;;8.60;91.10;;;;;;4998311;28;20205;-96
2022/12/06 07:19:06;;;;;;;16.37;6.70;;;7.90;91.50;;;;;;5695794;23;20244;-96
2022/12/06 07:25:27;;;;;;;9.33;4.77;;;7.90;91.60;;;;;;5063305;23;20245;-96
2022/12/06 07:28:00;;;;;;;8.63;4.73;;;8.00;91.50;;;;;;4958156;28;20303;-95
2022/12/06 07:30:33;;;;;;;13.37;6.17;;;8.00;91.40;;;;;;4968304;28;20206;-96
2022/12/06 07:33:16;;;;;;;8.03;4.60;;;8.00;91.40;;;;;;4967288;28;20204;-96
2022/12/06 07:35:59;;;;;;;9.37;5.40;;;8.00;91.50;;;;;;4976333;28;20234;-96
2022/12/06 07:38:31;;;;;;;8.83;4.87;;;7.90;91.40;;;;;;4958852;28;20216;-96
2022/12/06 07:41:02;;;;;;;10.73;4.97;;;7.90;91.20;;;;;;4977663;28;20235;-95
2022/12/06 07:46:41;;;;;;;12.43;5.83;;;7.90;91.20;;;;;;4962733;28;20216;-96
2022/12/06 07:49:09;;;;;;;17.03;6.50;;;7.90;91.20;;;;;;4958514;28;20209;-96
2022/12/06 07:51:44;;;;;;;15.13;6.60;;;7.90;91.20;;;;;;4959071;28;20223;-96
2022/12/06 07:54:17;;;;;;;10.73;5.80;;;7.90;91.30;;;;;;4972117;28;20765;-95
2022/12/06 07:56:48;;;;;;;16.50;7.00;;;7.90;91.50;;;;;;4961822;28;20211;-95
2022/12/06 07:59:22;;;;;;;11.40;6.10;;;7.90;91.50;;;;;;4951688;29;20216;-96
2022/12/06 08:01:52;;;;;;;9.60;5.03;;;7.90;91.70;;;;;;4959743;28;20292;-96
2022/12/06 08:04:23;;;;;;;14.03;5.50;;;7.80;91.70;;;;;;4962469;28;20212;-96
2022/12/06 08:06:59;;;;;;;11.83;4.07;;;7.90;91.90;;;;;;4982879;28;20287;-96
2022/12/06 08:09:35;;;;;;;11.13;5.60;;;7.90;91.90;;;;;;4965963;28;20217;-96
2022/12/06 08:12:06;;;;;;;6.73;4.27;;;7.90;92.10;;;;;;4963136;29;20207;-96
2022/12/06 08:14:39;;;;;;;8.40;4.33;;;7.90;92.10;;;;;;4961382;29;20214;-96
2022/12/06 08:17:06;;;;;;;10.70;4.77;;;7.90;92.20;;;;;;4956924;28;20226;-96
2022/12/06 08:19:39;;;;;;;9.43;4.10;;;7.90;92.10;;;;;;4957695;29;20380;-96
2022/12/06 08:22:19;;;;;;;8.70;4.17;;;8.00;92.10;;;;;;4957202;28;20213;-96
2022/12/06 08:24:51;;;;;;;10.07;4.53;;;8.00;92.50;;;;;;4954673;29;20213;-96
2022/12/06 08:27:21;;;;;;;9.83;4.60;;;8.00;92.40;;;;;;4949891;29;20211;-96
2022/12/06 08:29:53;;;;;;;12.50;5.20;;;8.00;92.50;;;;;;4957212;29;20214;-96
2022/12/06 08:32:32;;;;;;;12.80;4.97;;;8.10;92.70;;;;;;4953168;29;21106;-95
2022/12/06 08:35:05;;;;;;;6.43;3.83;;;8.10;92.80;;;;;;4950233;29;20210;-96
2022/12/06 08:37:38;;;;;;;15.03;6.17;;;8.10;92.90;;;;;;4956075;29;20227;-96
2022/12/06 08:40:14;;;;;;;10.97;4.67;;;8.10;92.80;;;;;;4957325;29;21018;-96
2022/12/06 08:42:45;;;;;;;10.87;5.47;;;8.20;93.10;;;;;;4960356;29;20214;-96
2022/12/06 08:45:18;;;;;;;12.27;5.53;;;8.20;93.10;;;;;;4959648;29;20315;-96
2022/12/06 08:47:51;;;;;;;16.43;6.87;;;8.20;93.00;;;;;;4966727;28;20201;-96
2022/12/06 08:50:19;;;;;;;15.37;6.30;;;8.20;93.20;;;;;;4953103;28;20243;-95
2022/12/06 08:52:52;;;;;;;13.77;5.30;;;8.30;93.20;;;;;;4965086;29;20656;-96
2022/12/06 08:55:28;;;;;;;9.27;5.43;;;8.30;93.20;;;;;;4948845;28;20201;-95
2022/12/06 08:57:57;;;;;;;7.73;4.63;;;8.30;93.20;;;;;;4957932;29;20281;-96
2022/12/06 09:00:25;;;;;;;12.63;5.43;;;8.40;93.20;;;;;;4960783;29;20647;-95
2022/12/06 09:02:58;;;;;;;9.60;6.40;;;8.40;93.30;;;;;;4947516;29;20305;-95
2022/12/06 09:05:30;;;;;;;15.00;7.47;;;8.50;93.60;;;;;;4955399;29;20209;-96
2022/12/06 09:08:07;;;;;;;13.40;7.17;;;8.50;93.60;;;;;;4957813;29;20204;-96
2022/12/06 09:10:50;;;;;;;8.00;5.77;;;8.50;93.70;;;;;;4957251;28;20217;-96
2022/12/06 09:13:36;;;;;;;8.23;4.67;;;8.60;93.90;;;;;;4958975;28;20211;-96
2022/12/06 09:16:11;;;;;;;9.33;4.70;;;8.60;93.90;;;;;;4944558;29;20282;-95
2022/12/06 09:18:47;;;;;;;13.10;5.20;;;8.70;93.80;;;;;;4958074;29;20317;-96
2022/12/06 09:21:17;;;;;;;12.27;5.00;;;8.80;94.00;;;;;;4939715;29;20219;-96
2022/12/06 09:23:48;;;;;;;12.50;5.00;;;8.80;93.90;;;;;;4946122;29;20677;-96
2022/12/06 09:26:19;;;;;;;15.03;5.77;;;8.80;93.80;;;;;;4966381;28;20306;-96
2022/12/06 09:28:49;;;;;;;7.27;3.50;;;8.90;93.80;;;;;;4951262;29;20298;-96
2022/12/06 09:31:23;;;;;;;7.13;3.90;;;8.90;93.70;;;;;;4948349;29;20204;-96
2022/12/06 09:33:55;;;;;;;7.73;3.70;;;8.90;93.80;;;;;;4943156;28;20206;-96
2022/12/06 09:36:25;;;;;;;11.20;4.77;;;9.00;93.70;;;;;;4951009;29;20233;-96
2022/12/06 09:39:05;;;;;;;7.37;3.97;;;9.10;93.80;;;;;;4958555;28;20215;-96
2022/12/06 09:42:09;;;;;;;8.10;3.70;;;9.10;93.80;;;;;;4958419;29;20231;-96
2022/12/06 09:45:02;;;;;;;10.17;4.37;;;9.10;93.70;;;;;;4940327;29;20268;-96
2022/12/06 09:47:55;;;;;;;9.07;3.60;;;9.20;93.70;;;;;;4959483;29;20552;-96
2022/12/06 09:50:57;;;;;;;11.47;4.23;;;9.20;93.70;;;;;;4961896;28;20210;-96
2022/12/06 09:53:48;;;;;;;5.77;3.23;;;9.30;93.60;;;;;;4955810;29;20214;-96
2022/12/06 09:56:31;;;;;;;8.73;3.83;;;9.30;93.10;;;;;;4961083;29;20203;-96
2022/12/06 09:59:15;;;;;;;8.17;3.67;;;9.40;92.90;;;;;;4963143;29;20211;-95
2022/12/06 10:01:59;;;;;;;9.07;4.70;;;9.40;92.90;;;;;;4967037;29;20322;-96
2022/12/06 10:04:58;;;;;;;13.40;4.83;;;9.50;92.90;;;;;;4956311;29;20207;-96
2022/12/06 10:14:38;;;;;;;5.60;3.23;;;9.60;92.80;;;;;;4965947;29;20282;-96
2022/12/06 10:17:39;;;;;;;8.87;4.40;;;9.60;92.80;;;;;;4958519;29;20325;-96
2022/12/06 10:23:53;;;;;;;10.83;4.63;;;9.70;92.40;;;;;;4951071;29;20331;-95
2022/12/06 10:26:31;;;;;;;9.80;3.33;;;9.70;92.20;;;;;;4966159;29;20318;-96
2022/12/06 10:29:17;;;;;;;7.30;3.30;;;9.70;91.90;;;;;;4963493;29;20215;-96
2022/12/06 10:31:58;;;;;;;8.33;4.10;;;9.70;91.90;;;;;;4961067;28;20225;-96
2022/12/06 10:34:57;;;;;;;7.30;3.10;;;9.80;92.10;;;;;;4960444;29;20935;-96
2022/12/06 10:38:06;;;;;;;9.37;3.77;;;9.80;92.00;;;;;;4956890;29;20239;-96
2022/12/06 10:41:05;;;;;;;7.63;3.30;;;9.80;92.40;;;;;;4943789;29;20318;-96
2022/12/06 10:44:00;;;;;;;6.87;3.77;;;9.80;91.80;;;;;;4961021;29;20211;-96
2022/12/06 10:47:11;;;;;;;5.73;2.97;;;9.80;91.80;;;;;;4948824;29;20218;-96
2022/12/06 10:50:21;;;;;;;7.17;3.47;;;9.90;91.70;;;;;;4958473;28;20214;-96
2022/12/06 10:52:54;;;;;;;10.10;4.20;;;9.90;91.70;;;;;;4949414;28;20217;-96
2022/12/06 10:55:31;;;;;;;10.40;3.97;;;9.90;91.70;;;;;;4957666;28;20215;-96
2022/12/06 11:01:40;;;;;;;10.90;3.87;;;9.90;91.80;;;;;;4951708;28;20231;-96
2022/12/06 11:04:21;;;;;;;16.30;5.57;;;10.00;90.80;;;;;;4961661;28;20206;-96
2022/12/06 11:07:09;;;;;;;13.67;4.70;;;10.00;90.50;;;;;;4973094;29;20203;-96
2022/12/06 11:09:44;;;;;;;8.87;3.60;;;10.00;91.20;;;;;;4963381;29;20612;-96
2022/12/06 11:12:24;;;;;;;7.93;3.03;;;10.00;91.30;;;;;;4942151;29;20235;-96
2022/12/06 11:15:07;;;;;;;10.83;3.07;;;10.10;91.70;;;;;;4949500;28;20231;-96
2022/12/06 11:18:06;;;;;;;5.43;2.70;;;10.20;91.40;;;;;;4954216;29;20208;-96
2022/12/06 11:20:49;;;;;;;13.77;4.47;;;10.30;91.80;;;;;;4952070;29;20286;-96
2022/12/06 11:23:48;;;;;;;9.83;3.23;;;10.50;93.10;;;;;;4957037;29;20819;-96
2022/12/06 11:26:55;;;;;;;11.40;4.23;;;10.70;92.90;;;;;;4964193;29;20215;-96
2022/12/06 11:29:52;;;;;;;11.27;4.40;;;10.90;93.90;;;;;;4954886;29;20624;-96
2022/12/06 11:32:28;;;;;;;6.57;2.93;;;11.20;93.20;;;;;;4951469;29;20211;-96
2022/12/06 11:35:14;;;;;;;;;;;;;;;;;;;;;
2022/12/06 11:37:54;;;;;;;8.63;3.07;;;11.60;93.20;;;;;;4954299;28;20214;-96
2022/12/06 11:40:56;;;;;;;6.93;3.10;;;11.90;91.50;;;;;;4944509;28;20280;-96
2022/12/06 11:43:34;;;;;;;8.90;3.30;;;12.10;92.60;;;;;;4940863;29;20209;-96
2022/12/06 11:46:12;;;;;;;7.53;3.33;;;12.40;91.20;;;;;;4954937;29;20413;-96
2022/12/06 11:48:39;;;;;;;14.73;5.97;;;12.60;91.10;;;;;;4948369;28;20244;-96
2022/12/06 11:51:24;;;;;;;7.47;3.87;;;12.80;91.00;;;;;;4957709;28;20217;-96
2022/12/06 11:54:16;;;;;;;7.97;3.10;;;13.00;89.60;;;;;;4957529;28;20212;-96
2022/12/06 11:56:56;;;;;;;6.27;2.70;;;13.30;88.50;;;;;;4939695;29;20232;-96
2022/12/06 11:59:32;;;;;;;7.87;3.40;;;13.50;86.20;;;;;;4941099;29;20425;-96
2022/12/06 12:02:07;;;;;;;8.37;3.63;;;13.70;85.30;;;;;;4950308;29;20288;-96
2022/12/06 12:04:39;;;;;;;4.60;2.77;;;13.90;84.70;;;;;;4957930;28;20211;-96
2022/12/06 12:10:42;;;;;;;6.77;3.47;;;14.30;83.40;;;;;;4947878;29;20208;-96
2022/12/06 12:16:24;;;;;;;9.40;3.37;;;14.60;78.30;;;;;;4966584;29;20222;-96
2022/12/06 12:19:18;;;;;;;9.03;3.60;;;14.70;76.70;;;;;;4967795;29;20211;-96
2022/12/06 12:21:52;;;;;;;10.60;4.07;;;14.90;75.90;;;;;;4963714;29;20288;-96
2022/12/06 12:24:44;;;;;;;4.43;2.33;;;15.00;76.40;;;;;;4958267;29;20217;-96
2022/12/06 12:27:51;;;;;;;5.23;2.10;;;15.10;73.70;;;;;;4943386;29;20219;-96
2022/12/06 12:30:35;;;;;;;4.63;2.53;;;15.20;76.90;;;;;;4935431;29;20205;-95
2022/12/06 12:33:22;;;;;;;6.20;3.07;;;15.40;74.60;;;;;;4958334;29;20209;-96
2022/12/06 12:36:18;;;;;;;8.30;3.33;;;15.50;76.40;;;;;;4956128;28;20232;-96
2022/12/06 12:39:02;;;;;;;6.63;2.90;;;15.60;75.80;;;;;;4959027;29;20212;-96
2022/12/06 12:48:48;;;;;;;6.20;2.27;;;16.00;71.60;;;;;;4916075;29;20261;-96
2022/12/06 12:51:34;;;;;;;5.60;2.67;;;16.00;70.70;;;;;;4969793;29;20232;-96
2022/12/06 12:54:49;;;;;;;5.50;2.60;;;16.10;69.80;;;;;;4973675;29;20197;-96
2022/12/06 13:17:55;;;;;;;8.73;3.10;;;16.30;69.30;;;;;;4878045;29;20242;-96
2022/12/06 14:04:12;;;;;;;5.40;2.17;;;16.20;64.00;;;;;;5193699;23;20251;-96
2022/12/06 15:41:20;;;;;;;7.87;3.03;;;12.90;67.20;;;;;;4968648;28;20233;-96
2022/12/06 15:43:53;;;;;;;6.67;2.70;;;12.80;67.60;;;;;;4963637;28;20207;-96
2022/12/06 15:46:34;;;;;;;8.53;3.17;;;12.70;67.70;;;;;;4964053;28;20207;-96
2022/12/06 15:55:33;;;;;;;5.60;2.17;;;12.50;68.40;;;;;;4845883;29;20655;-96
2022/12/06 17:12:18;;;;;;;11.43;6.13;;;11.70;71.70;;;;;;6088758;22;3378778;-96
2022/12/06 17:15:02;;;;;;;;;;;;;;;;;;;;;
2022/12/06 17:17:37;;;;;;;9.33;5.00;;;11.70;72.40;;;;;;6189215;23;20169;-96
2022/12/06 17:20:25;;;;;;;8.13;3.73;;;11.70;72.90;;;;;;6191395;23;20713;-96
2022/12/06 17:23:05;;;;;;;3.67;2.80;;;11.70;72.90;;;;;;6198319;23;20192;-95
2022/12/06 17:29:22;;;;;;;10.47;3.73;;;11.70;72.70;;;;;;6198625;23;20200;-95
2022/12/06 17:32:11;;;;;;;6.73;3.33;;;11.70;72.90;;;;;;6197576;23;20172;-96
2022/12/06 17:34:51;;;;;;;8.33;4.00;;;11.60;72.80;;;;;;6197006;23;20233;-96
2022/12/06 17:42:58;;;;;;;11.83;5.97;;;11.60;73.40;;;;;;6142471;23;20236;-96
2022/12/06 21:02:38;;;;;;;13.40;5.30;;;9.30;81.50;;;;;;6121096;23;20203;-96
2022/12/06 21:06:00;;;;;;;13.17;4.63;;;9.30;81.70;;;;;;6164945;23;20176;-96
2022/12/06 21:18:48;;;;;;;17.20;5.37;;;9.40;83.40;;;;;;6048105;23;20184;-96
2022/12/06 21:21:27;;;;;;;5.03;2.00;;;9.40;83.60;;;;;;6138569;23;20194;-96
2022/12/06 21:24:54;;;;;;;9.17;2.57;;;9.40;83.70;;;;;;6139157;23;20176;-96
2022/12/06 21:27:49;;;;;;;3.37;1.57;;;9.50;85.00;;;;;;6140207;23;20181;-96
2022/12/06 21:37:03;;;;;;;8.07;2.50;;;9.60;85.20;;;;;;6138199;23;20245;-96
2022/12/06 21:40:15;;;;;;;4.83;1.33;;;9.60;85.60;;;;;;6144800;23;20469;-96
2022/12/06 21:42:50;;;;;;;9.00;2.37;;;9.70;85.70;;;;;;6137659;23;20192;-96
2022/12/06 21:45:32;;;;;;;8.47;1.80;;;9.70;85.10;;;;;;6131147;23;20237;-96
2022/12/06 21:48:22;;;;;;;;;;;;;;;;;;;;;
2022/12/06 21:51:23;;;;;;;6.57;1.83;;;9.70;85.10;;;;;;6136183;23;20185;-96
2022/12/06 22:19:30;;;;;;;9.87;2.27;;;10.00;84.50;;;;;;6141129;23;20223;-96
2022/12/06 22:26:31;;;;;;;9.37;2.23;;;10.10;84.90;;;;;;6138919;23;20250;-96
2022/12/06 22:29:48;;;;;;;6.33;1.80;;;10.10;84.50;;;;;;6048039;23;20259;-96
2022/12/06 22:52:28;;;;;;;8.23;2.93;;;10.10;82.80;;;;;;5947045;24;20189;-96
2022/12/06 22:58:23;;;;;;;7.47;2.50;;;10.10;83.40;;;;;;5966030;23;20236;-96
2022/12/06 23:01:20;;;;;;;5.83;2.30;;;10.10;82.60;;;;;;6133451;23;20245;-96
2022/12/06 23:04:26;;;;;;;7.40;2.60;;;10.10;83.30;;;;;;6131550;23;20195;-96
2022/12/06 23:07:27;;;;;;;7.60;2.80;;;10.10;83.50;;;;;;6135432;23;20198;-96
2022/12/06 23:10:06;;;;;;;5.70;1.60;;;10.10;83.00;;;;;;6135006;23;20170;-96
2022/12/06 23:16:10;;;;;;;8.03;2.13;;;10.00;83.00;;;;;;6130926;23;20253;-96
2022/12/06 23:19:05;;;;;;;7.30;2.20;;;10.00;82.90;;;;;;6132862;23;20294;-96
2022/12/06 23:21:58;;;;;;;10.53;2.80;;;10.00;82.50;;;;;;6124288;23;20225;-96
2022/12/06 23:28:28;;;;;;;;;;;;;;;;;;;;;
2022/12/06 23:31:40;;;;;;;8.83;2.83;;;10.00;82.40;;;;;;6106539;23;20171;-96
2022/12/06 23:34:41;;;;;;;13.17;3.60;;;10.00;82.40;;;;;;6134114;23;20204;-96
2022/12/06 23:50:22;;;;;;;6.90;2.73;;;9.80;83.30;;;;;;6140279;23;20206;-96
2022/12/06 23:53:20;;;;;;;5.00;2.37;;;9.80;83.40;;;;;;6141181;23;20202;-96
2022/12/06 23:56:18;;;;;;;6.07;2.23;;;9.80;83.60;;;;;;6107663;23;20259;-96
2022/12/06 23:59:20;;;;;;;;;;;;;;;;;;;;;
